sensor_id;sensor_type;location;lat;lon;timestamp;temperature;humidity
76104;HTU21D;64831;44.870;37.336;2024-01-10T00:01:46;-6.42;71.97
76104;HTU21D;64831;44.870;37.336;2024-01-10T00:04:12;-6.42;71.93
76104;HTU21D;64831;44.870;37.336;2024-01-10T00:06:39;-6.43;71.90
76104;HTU21D;64831;44.870;37.336;2024-01-10T00:09:05;-6.43;71.88
76104;HTU21D;64831;44.870;37.336;2024-01-10T00:11:31;-6.43;72.00
76104;HTU21D;64831;44.870;37.336;2024-01-10T00:13:57;-6.48;72.10
76104;HTU21D;64831;44.870;37.336;2024-01-10T00:16:26;-6.48;72.26
76104;HTU21D;64831;44.870;37.336;2024-01-10T00:18:52;-6.48;72.43
76104;HTU21D;64831;44.870;37.336;2024-01-10T00:21:18;-6.49;72.53
76104;HTU21D;64831;44.870;37.336;2024-01-10T00:23:44;-6.52;72.72
76104;HTU21D;64831;44.870;37.336;2024-01-10T00:26:10;-6.52;72.85
76104;HTU21D;64831;44.870;37.336;2024-01-10T00:28:36;-6.52;72.99
76104;HTU21D;64831;44.870;37.336;2024-01-10T00:31:02;-6.52;73.09
76104;HTU21D;64831;44.870;37.336;2024-01-10T00:33:28;-6.56;73.14
76104;HTU21D;64831;44.870;37.336;2024-01-10T00:35:55;-6.58;73.45
76104;HTU21D;64831;44.870;37.336;2024-01-10T00:38:21;-6.59;73.67
76104;HTU21D;64831;44.870;37.336;2024-01-10T00:40:47;-6.57;73.69
76104;HTU21D;64831;44.870;37.336;2024-01-10T00:43:13;-6.60;73.86
76104;HTU21D;64831;44.870;37.336;2024-01-10T00:45:39;-6.60;74.01
76104;HTU21D;64831;44.870;37.336;2024-01-10T00:48:05;-6.57;74.00
76104;HTU21D;64831;44.870;37.336;2024-01-10T00:50:31;-6.58;73.91
76104;HTU21D;64831;44.870;37.336;2024-01-10T00:52:57;-6.61;73.96
76104;HTU21D;64831;44.870;37.336;2024-01-10T00:55:23;-6.59;74.00
76104;HTU21D;64831;44.870;37.336;2024-01-10T00:57:48;-6.60;73.99
76104;HTU21D;64831;44.870;37.336;2024-01-10T01:00:15;-6.60;73.92
76104;HTU21D;64831;44.870;37.336;2024-01-10T01:02:41;-6.59;73.83
76104;HTU21D;64831;44.870;37.336;2024-01-10T01:05:07;-6.59;73.72
76104;HTU21D;64831;44.870;37.336;2024-01-10T01:07:34;-6.59;73.58
76104;HTU21D;64831;44.870;37.336;2024-01-10T01:10:00;-6.56;73.41
76104;HTU21D;64831;44.870;37.336;2024-01-10T01:12:26;-6.57;73.36
76104;HTU21D;64831;44.870;37.336;2024-01-10T01:14:52;-6.59;73.40
76104;HTU21D;64831;44.870;37.336;2024-01-10T01:17:17;-6.61;73.63
76104;HTU21D;64831;44.870;37.336;2024-01-10T01:19:43;-6.63;73.89
76104;HTU21D;64831;44.870;37.336;2024-01-10T01:22:09;-6.64;74.12
76104;HTU21D;64831;44.870;37.336;2024-01-10T01:24:35;-6.68;74.45
76104;HTU21D;64831;44.870;37.336;2024-01-10T01:27:02;-6.72;74.67
76104;HTU21D;64831;44.870;37.336;2024-01-10T01:29:28;-6.73;74.79
76104;HTU21D;64831;44.870;37.336;2024-01-10T01:31:55;-6.78;75.25
76104;HTU21D;64831;44.870;37.336;2024-01-10T01:34:21;-6.80;75.59
76104;HTU21D;64831;44.870;37.336;2024-01-10T01:36:47;-6.82;75.94
76104;HTU21D;64831;44.870;37.336;2024-01-10T01:39:13;-6.85;76.13
76104;HTU21D;64831;44.870;37.336;2024-01-10T01:41:40;-6.85;76.11
76104;HTU21D;64831;44.870;37.336;2024-01-10T01:44:05;-6.87;76.20
76104;HTU21D;64831;44.870;37.336;2024-01-10T01:46:32;-6.89;76.31
76104;HTU21D;64831;44.870;37.336;2024-01-10T01:49:01;-6.91;76.70
76104;HTU21D;64831;44.870;37.336;2024-01-10T01:51:29;-6.93;76.86
76104;HTU21D;64831;44.870;37.336;2024-01-10T01:53:56;-6.96;77.05
76104;HTU21D;64831;44.870;37.336;2024-01-10T01:56:23;-6.97;77.21
76104;HTU21D;64831;44.870;37.336;2024-01-10T01:58:53;-6.97;77.25
76104;HTU21D;64831;44.870;37.336;2024-01-10T02:01:20;-7.01;77.40
76104;HTU21D;64831;44.870;37.336;2024-01-10T02:03:47;-7.01;77.40
76104;HTU21D;64831;44.870;37.336;2024-01-10T02:06:13;-7.02;77.46
76104;HTU21D;64831;44.870;37.336;2024-01-10T02:08:39;-7.03;77.50
76104;HTU21D;64831;44.870;37.336;2024-01-10T02:11:05;-7.05;77.49
76104;HTU21D;64831;44.870;37.336;2024-01-10T02:13:32;-7.06;77.57
76104;HTU21D;64831;44.870;37.336;2024-01-10T02:15:59;-7.04;77.64
76104;HTU21D;64831;44.870;37.336;2024-01-10T02:18:25;-7.08;77.78
76104;HTU21D;64831;44.870;37.336;2024-01-10T02:20:51;-7.09;77.95
76104;HTU21D;64831;44.870;37.336;2024-01-10T02:23:17;-7.10;78.05
76104;HTU21D;64831;44.870;37.336;2024-01-10T02:25:44;-7.10;78.12
76104;HTU21D;64831;44.870;37.336;2024-01-10T02:28:10;-7.11;78.24
76104;HTU21D;64831;44.870;37.336;2024-01-10T02:30:37;-7.16;78.40
76104;HTU21D;64831;44.870;37.336;2024-01-10T02:33:03;-7.16;78.43
76104;HTU21D;64831;44.870;37.336;2024-01-10T02:35:29;-7.20;78.61
76104;HTU21D;64831;44.870;37.336;2024-01-10T02:37:59;-7.21;78.52
76104;HTU21D;64831;44.870;37.336;2024-01-10T02:40:25;-7.24;78.74
76104;HTU21D;64831;44.870;37.336;2024-01-10T02:42:51;-7.25;78.70
76104;HTU21D;64831;44.870;37.336;2024-01-10T02:45:17;-7.29;78.85
76104;HTU21D;64831;44.870;37.336;2024-01-10T02:47:45;-7.30;78.83
76104;HTU21D;64831;44.870;37.336;2024-01-10T02:50:11;-7.29;78.79
76104;HTU21D;64831;44.870;37.336;2024-01-10T02:52:37;-7.29;78.82
76104;HTU21D;64831;44.870;37.336;2024-01-10T02:55:03;-7.26;78.84
76104;HTU21D;64831;44.870;37.336;2024-01-10T02:57:29;-7.30;78.95
76104;HTU21D;64831;44.870;37.336;2024-01-10T02:59:55;-7.33;79.18
76104;HTU21D;64831;44.870;37.336;2024-01-10T03:02:21;-7.36;79.44
76104;HTU21D;64831;44.870;37.336;2024-01-10T03:04:49;-7.36;79.60
76104;HTU21D;64831;44.870;37.336;2024-01-10T03:07:15;-7.38;79.75
76104;HTU21D;64831;44.870;37.336;2024-01-10T03:09:41;-7.40;80.05
76104;HTU21D;64831;44.870;37.336;2024-01-10T03:12:09;-7.41;80.15
76104;HTU21D;64831;44.870;37.336;2024-01-10T03:14:36;-7.42;80.36
76104;HTU21D;64831;44.870;37.336;2024-01-10T03:17:02;-7.45;80.39
76104;HTU21D;64831;44.870;37.336;2024-01-10T03:19:28;-7.48;80.52
76104;HTU21D;64831;44.870;37.336;2024-01-10T03:21:54;-7.49;80.68
76104;HTU21D;64831;44.870;37.336;2024-01-10T03:24:20;-7.52;80.84
76104;HTU21D;64831;44.870;37.336;2024-01-10T03:26:46;-7.49;80.78
76104;HTU21D;64831;44.870;37.336;2024-01-10T03:29:12;-7.53;80.94
76104;HTU21D;64831;44.870;37.336;2024-01-10T03:31:38;-7.54;80.93
76104;HTU21D;64831;44.870;37.336;2024-01-10T03:34:03;-7.53;80.98
76104;HTU21D;64831;44.870;37.336;2024-01-10T03:36:30;-7.55;81.01
76104;HTU21D;64831;44.870;37.336;2024-01-10T03:38:56;-7.55;81.02
76104;HTU21D;64831;44.870;37.336;2024-01-10T03:41:22;-7.55;80.93
76104;HTU21D;64831;44.870;37.336;2024-01-10T03:43:48;-7.59;80.94
76104;HTU21D;64831;44.870;37.336;2024-01-10T03:46:14;-7.60;81.05
76104;HTU21D;64831;44.870;37.336;2024-01-10T03:48:41;-7.62;81.07
76104;HTU21D;64831;44.870;37.336;2024-01-10T03:51:16;-7.61;81.16
76104;HTU21D;64831;44.870;37.336;2024-01-10T03:53:43;-7.61;81.07
76104;HTU21D;64831;44.870;37.336;2024-01-10T03:56:09;-7.63;81.17
76104;HTU21D;64831;44.870;37.336;2024-01-10T03:58:36;-7.63;81.20
76104;HTU21D;64831;44.870;37.336;2024-01-10T04:01:06;-7.65;81.25
76104;HTU21D;64831;44.870;37.336;2024-01-10T04:03:32;-7.66;81.27
76104;HTU21D;64831;44.870;37.336;2024-01-10T04:05:58;-7.65;81.21
76104;HTU21D;64831;44.870;37.336;2024-01-10T04:08:24;-7.65;81.11
76104;HTU21D;64831;44.870;37.336;2024-01-10T04:10:50;-7.65;81.10
76104;HTU21D;64831;44.870;37.336;2024-01-10T04:13:16;-7.66;81.03
76104;HTU21D;64831;44.870;37.336;2024-01-10T04:15:42;-7.65;80.94
76104;HTU21D;64831;44.870;37.336;2024-01-10T04:18:08;-7.68;80.75
76104;HTU21D;64831;44.870;37.336;2024-01-10T04:20:34;-7.68;80.46
76104;HTU21D;64831;44.870;37.336;2024-01-10T04:23:00;-7.69;80.17
76104;HTU21D;64831;44.870;37.336;2024-01-10T04:25:26;-7.69;80.01
76104;HTU21D;64831;44.870;37.336;2024-01-10T04:27:52;-7.68;79.85
76104;HTU21D;64831;44.870;37.336;2024-01-10T04:30:18;-7.68;79.73
76104;HTU21D;64831;44.870;37.336;2024-01-10T04:32:43;-7.68;79.66
76104;HTU21D;64831;44.870;37.336;2024-01-10T04:35:09;-7.68;79.62
76104;HTU21D;64831;44.870;37.336;2024-01-10T04:37:36;-7.67;79.61
76104;HTU21D;64831;44.870;37.336;2024-01-10T04:40:02;-7.68;79.66
76104;HTU21D;64831;44.870;37.336;2024-01-10T04:42:30;-7.67;79.67
76104;HTU21D;64831;44.870;37.336;2024-01-10T04:44:56;-7.67;79.68
76104;HTU21D;64831;44.870;37.336;2024-01-10T04:47:22;-7.71;79.75
76104;HTU21D;64831;44.870;37.336;2024-01-10T04:49:48;-7.71;79.82
76104;HTU21D;64831;44.870;37.336;2024-01-10T04:52:14;-7.72;79.97
76104;HTU21D;64831;44.870;37.336;2024-01-10T04:54:40;-7.72;80.05
76104;HTU21D;64831;44.870;37.336;2024-01-10T04:57:05;-7.76;80.19
76104;HTU21D;64831;44.870;37.336;2024-01-10T04:59:33;-7.78;80.26
76104;HTU21D;64831;44.870;37.336;2024-01-10T05:01:59;-7.80;80.36
76104;HTU21D;64831;44.870;37.336;2024-01-10T05:04:25;-7.82;80.40
76104;HTU21D;64831;44.870;37.336;2024-01-10T05:06:51;-7.79;80.41
76104;HTU21D;64831;44.870;37.336;2024-01-10T05:09:17;-7.80;80.46
76104;HTU21D;64831;44.870;37.336;2024-01-10T05:11:43;-7.79;80.34
76104;HTU21D;64831;44.870;37.336;2024-01-10T05:14:12;-7.76;80.17
76104;HTU21D;64831;44.870;37.336;2024-01-10T05:16:38;-7.72;79.94
76104;HTU21D;64831;44.870;37.336;2024-01-10T05:19:04;-7.68;79.62
76104;HTU21D;64831;44.870;37.336;2024-01-10T05:21:31;-7.63;79.32
76104;HTU21D;64831;44.870;37.336;2024-01-10T05:23:58;-7.54;79.08
76104;HTU21D;64831;44.870;37.336;2024-01-10T05:26:24;-7.49;78.80
76104;HTU21D;64831;44.870;37.336;2024-01-10T05:28:49;-7.45;78.45
76104;HTU21D;64831;44.870;37.336;2024-01-10T05:31:16;-7.34;78.15
76104;HTU21D;64831;44.870;37.336;2024-01-10T05:33:42;-7.29;77.89
76104;HTU21D;64831;44.870;37.336;2024-01-10T05:36:09;-7.22;77.57
76104;HTU21D;64831;44.870;37.336;2024-01-10T05:38:38;-7.13;77.39
76104;HTU21D;64831;44.870;37.336;2024-01-10T05:41:05;-7.07;77.24
76104;HTU21D;64831;44.870;37.336;2024-01-10T05:43:31;-7.03;77.02
76104;HTU21D;64831;44.870;37.336;2024-01-10T05:45:57;-7.02;76.66
76104;HTU21D;64831;44.870;37.336;2024-01-10T05:48:24;-6.97;76.36
76104;HTU21D;64831;44.870;37.336;2024-01-10T05:50:50;-6.93;76.15
76104;HTU21D;64831;44.870;37.336;2024-01-10T05:53:16;-6.87;76.14
76104;HTU21D;64831;44.870;37.336;2024-01-10T05:55:43;-6.81;76.09
76104;HTU21D;64831;44.870;37.336;2024-01-10T05:58:10;-6.78;75.96
76104;HTU21D;64831;44.870;37.336;2024-01-10T06:00:36;-6.72;75.90
76104;HTU21D;64831;44.870;37.336;2024-01-10T06:03:02;-6.71;75.88
76104;HTU21D;64831;44.870;37.336;2024-01-10T06:05:28;-6.70;75.80
76104;HTU21D;64831;44.870;37.336;2024-01-10T06:07:54;-6.66;75.82
76104;HTU21D;64831;44.870;37.336;2024-01-10T06:10:20;-6.63;75.87
76104;HTU21D;64831;44.870;37.336;2024-01-10T06:12:46;-6.53;76.02
76104;HTU21D;64831;44.870;37.336;2024-01-10T06:15:12;-6.48;76.15
76104;HTU21D;64831;44.870;37.336;2024-01-10T06:17:38;-6.43;76.22
76104;HTU21D;64831;44.870;37.336;2024-01-10T06:20:05;-6.39;76.28
76104;HTU21D;64831;44.870;37.336;2024-01-10T06:22:32;-6.33;76.33
76104;HTU21D;64831;44.870;37.336;2024-01-10T06:24:59;-6.31;76.39
76104;HTU21D;64831;44.870;37.336;2024-01-10T06:27:24;-6.22;76.63
76104;HTU21D;64831;44.870;37.336;2024-01-10T06:29:50;-6.16;76.86
76104;HTU21D;64831;44.870;37.336;2024-01-10T06:32:16;-6.11;77.24
76104;HTU21D;64831;44.870;37.336;2024-01-10T06:34:42;-6.02;77.49
76104;HTU21D;64831;44.870;37.336;2024-01-10T06:37:08;-5.97;77.82
76104;HTU21D;64831;44.870;37.336;2024-01-10T06:39:34;-5.91;77.95
76104;HTU21D;64831;44.870;37.336;2024-01-10T06:42:01;-5.87;77.99
76104;HTU21D;64831;44.870;37.336;2024-01-10T06:44:30;-5.78;78.15
76104;HTU21D;64831;44.870;37.336;2024-01-10T06:46:56;-5.71;78.38
76104;HTU21D;64831;44.870;37.336;2024-01-10T06:49:21;-5.62;78.44
76104;HTU21D;64831;44.870;37.336;2024-01-10T06:51:47;-5.54;78.53
76104;HTU21D;64831;44.870;37.336;2024-01-10T06:54:13;-5.47;78.46
76104;HTU21D;64831;44.870;37.336;2024-01-10T06:56:40;-5.41;78.74
76104;HTU21D;64831;44.870;37.336;2024-01-10T06:59:06;-5.26;79.00
76104;HTU21D;64831;44.870;37.336;2024-01-10T07:01:32;-5.03;79.50
76104;HTU21D;64831;44.870;37.336;2024-01-10T07:03:58;-4.75;80.06
76104;HTU21D;64831;44.870;37.336;2024-01-10T07:06:24;-4.48;80.03
76104;HTU21D;64831;44.870;37.336;2024-01-10T07:08:50;-4.29;79.48
76104;HTU21D;64831;44.870;37.336;2024-01-10T07:11:19;-4.13;78.97
76104;HTU21D;64831;44.870;37.336;2024-01-10T07:13:45;-3.97;78.59
76104;HTU21D;64831;44.870;37.336;2024-01-10T07:16:12;-3.66;78.79
76104;HTU21D;64831;44.870;37.336;2024-01-10T07:18:41;-3.00;79.49
76104;HTU21D;64831;44.870;37.336;2024-01-10T07:21:08;-2.17;78.02
76104;HTU21D;64831;44.870;37.336;2024-01-10T07:23:34;-1.62;75.91
76104;HTU21D;64831;44.870;37.336;2024-01-10T07:26:01;-1.36;73.17
76104;HTU21D;64831;44.870;37.336;2024-01-10T07:28:27;-1.00;72.58
76104;HTU21D;64831;44.870;37.336;2024-01-10T07:30:53;-0.59;70.64
76104;HTU21D;64831;44.870;37.336;2024-01-10T07:33:19;-0.27;69.73
76104;HTU21D;64831;44.870;37.336;2024-01-10T07:35:45;-0.09;67.87
76104;HTU21D;64831;44.870;37.336;2024-01-10T07:38:11;0.25;67.44
76104;HTU21D;64831;44.870;37.336;2024-01-10T07:40:37;0.49;66.54
76104;HTU21D;64831;44.870;37.336;2024-01-10T07:43:04;0.71;65.30
76104;HTU21D;64831;44.870;37.336;2024-01-10T07:45:30;0.94;64.69
76104;HTU21D;64831;44.870;37.336;2024-01-10T07:47:56;1.12;64.90
76104;HTU21D;64831;44.870;37.336;2024-01-10T07:50:29;1.14;63.73
76104;HTU21D;64831;44.870;37.336;2024-01-10T07:52:55;1.41;64.59
76104;HTU21D;64831;44.870;37.336;2024-01-10T07:55:21;1.68;63.60
76104;HTU21D;64831;44.870;37.336;2024-01-10T07:57:46;1.72;61.31
76104;HTU21D;64831;44.870;37.336;2024-01-10T08:00:13;1.73;60.86
76104;HTU21D;64831;44.870;37.336;2024-01-10T08:02:39;1.76;60.91
76104;HTU21D;64831;44.870;37.336;2024-01-10T08:05:06;1.71;60.29
76104;HTU21D;64831;44.870;37.336;2024-01-10T08:07:36;1.75;60.38
76104;HTU21D;64831;44.870;37.336;2024-01-10T08:10:05;1.85;60.80
76104;HTU21D;64831;44.870;37.336;2024-01-10T08:12:32;1.87;60.31
76104;HTU21D;64831;44.870;37.336;2024-01-10T08:14:58;1.98;59.93
76104;HTU21D;64831;44.870;37.336;2024-01-10T08:17:24;1.87;59.32
76104;HTU21D;64831;44.870;37.336;2024-01-10T08:19:50;1.83;59.74
76104;HTU21D;64831;44.870;37.336;2024-01-10T08:22:17;1.90;60.16
76104;HTU21D;64831;44.870;37.336;2024-01-10T08:24:45;1.86;60.44
76104;HTU21D;64831;44.870;37.336;2024-01-10T08:27:12;1.84;60.18
76104;HTU21D;64831;44.870;37.336;2024-01-10T08:29:38;1.76;60.21
76104;HTU21D;64831;44.870;37.336;2024-01-10T08:32:05;1.53;60.66
76104;HTU21D;64831;44.870;37.336;2024-01-10T08:34:31;1.60;60.84
76104;HTU21D;64831;44.870;37.336;2024-01-10T08:36:56;1.58;60.86
76104;HTU21D;64831;44.870;37.336;2024-01-10T08:39:22;1.56;60.72
76104;HTU21D;64831;44.870;37.336;2024-01-10T08:41:50;1.50;60.90
76104;HTU21D;64831;44.870;37.336;2024-01-10T08:44:16;1.41;60.83
76104;HTU21D;64831;44.870;37.336;2024-01-10T08:46:42;1.41;61.18
76104;HTU21D;64831;44.870;37.336;2024-01-10T08:49:07;1.46;61.25
76104;HTU21D;64831;44.870;37.336;2024-01-10T08:51:34;1.42;61.28
76104;HTU21D;64831;44.870;37.336;2024-01-10T08:54:00;1.58;61.59
76104;HTU21D;64831;44.870;37.336;2024-01-10T08:56:26;1.71;61.56
76104;HTU21D;64831;44.870;37.336;2024-01-10T08:58:52;1.81;61.57
76104;HTU21D;64831;44.870;37.336;2024-01-10T09:01:18;1.85;61.33
76104;HTU21D;64831;44.870;37.336;2024-01-10T09:03:46;1.88;60.99
76104;HTU21D;64831;44.870;37.336;2024-01-10T09:06:13;1.81;61.14
76104;HTU21D;64831;44.870;37.336;2024-01-10T09:08:39;1.70;61.22
76104;HTU21D;64831;44.870;37.336;2024-01-10T09:11:07;1.52;61.20
76104;HTU21D;64831;44.870;37.336;2024-01-10T09:13:33;1.38;61.39
76104;HTU21D;64831;44.870;37.336;2024-01-10T09:16:00;1.21;62.09
76104;HTU21D;64831;44.870;37.336;2024-01-10T09:18:26;1.18;62.31
76104;HTU21D;64831;44.870;37.336;2024-01-10T09:20:51;1.08;62.37
76104;HTU21D;64831;44.870;37.336;2024-01-10T09:23:17;0.98;62.76
76104;HTU21D;64831;44.870;37.336;2024-01-10T09:25:44;0.93;63.18
76104;HTU21D;64831;44.870;37.336;2024-01-10T09:28:10;0.90;63.42
76104;HTU21D;64831;44.870;37.336;2024-01-10T09:30:36;0.99;63.77
76104;HTU21D;64831;44.870;37.336;2024-01-10T09:33:02;1.01;63.69
76104;HTU21D;64831;44.870;37.336;2024-01-10T09:35:28;1.05;63.34
76104;HTU21D;64831;44.870;37.336;2024-01-10T09:37:54;1.02;63.64
76104;HTU21D;64831;44.870;37.336;2024-01-10T09:40:20;1.05;63.89
76104;HTU21D;64831;44.870;37.336;2024-01-10T09:42:50;0.94;63.39
76104;HTU21D;64831;44.870;37.336;2024-01-10T09:45:21;0.86;63.39
76104;HTU21D;64831;44.870;37.336;2024-01-10T09:47:56;0.74;63.70
76104;HTU21D;64831;44.870;37.336;2024-01-10T09:50:23;0.74;63.63
76104;HTU21D;64831;44.870;37.336;2024-01-10T09:52:56;0.67;63.63
76104;HTU21D;64831;44.870;37.336;2024-01-10T09:55:26;0.58;63.76
76104;HTU21D;64831;44.870;37.336;2024-01-10T09:57:56;0.59;64.59
76104;HTU21D;64831;44.870;37.336;2024-01-10T10:00:22;0.62;64.56
76104;HTU21D;64831;44.870;37.336;2024-01-10T10:02:51;0.68;64.56
76104;HTU21D;64831;44.870;37.336;2024-01-10T10:05:17;0.72;64.30
76104;HTU21D;64831;44.870;37.336;2024-01-10T10:07:48;0.64;64.28
76104;HTU21D;64831;44.870;37.336;2024-01-10T10:10:15;0.63;64.72
76104;HTU21D;64831;44.870;37.336;2024-01-10T10:12:48;0.66;65.17
76104;HTU21D;64831;44.870;37.336;2024-01-10T10:15:16;0.76;65.19
76104;HTU21D;64831;44.870;37.336;2024-01-10T10:17:48;0.79;64.88
76104;HTU21D;64831;44.870;37.336;2024-01-10T10:20:19;0.69;64.72
76104;HTU21D;64831;44.870;37.336;2024-01-10T10:23:06;0.68;64.74
76104;HTU21D;64831;44.870;37.336;2024-01-10T10:25:49;0.74;65.29
76104;HTU21D;64831;44.870;37.336;2024-01-10T10:28:15;0.75;64.92
76104;HTU21D;64831;44.870;37.336;2024-01-10T10:30:42;0.76;65.04
76104;HTU21D;64831;44.870;37.336;2024-01-10T10:33:08;0.77;65.01
76104;HTU21D;64831;44.870;37.336;2024-01-10T10:35:34;0.86;65.11
76104;HTU21D;64831;44.870;37.336;2024-01-10T10:38:00;0.81;64.53
76104;HTU21D;64831;44.870;37.336;2024-01-10T10:40:26;0.61;64.66
76104;HTU21D;64831;44.870;37.336;2024-01-10T10:42:56;0.55;65.15
76104;HTU21D;64831;44.870;37.336;2024-01-10T10:45:23;0.47;65.50
76104;HTU21D;64831;44.870;37.336;2024-01-10T10:47:56;0.39;65.60
76104;HTU21D;64831;44.870;37.336;2024-01-10T10:50:22;0.33;65.92
76104;HTU21D;64831;44.870;37.336;2024-01-10T10:52:50;0.27;66.07
76104;HTU21D;64831;44.870;37.336;2024-01-10T10:55:17;0.27;66.33
76104;HTU21D;64831;44.870;37.336;2024-01-10T10:57:47;0.27;66.20
76104;HTU21D;64831;44.870;37.336;2024-01-10T11:00:19;0.23;66.40
76104;HTU21D;64831;44.870;37.336;2024-01-10T11:02:46;0.16;66.53
76104;HTU21D;64831;44.870;37.336;2024-01-10T11:05:12;0.10;66.81
76104;HTU21D;64831;44.870;37.336;2024-01-10T11:07:41;0.16;66.95
76104;HTU21D;64831;44.870;37.336;2024-01-10T11:24:23;0.07;67.72
76104;HTU21D;64831;44.870;37.336;2024-01-10T11:26:49;0.12;67.82
76104;HTU21D;64831;44.870;37.336;2024-01-10T11:29:15;0.16;67.74
76104;HTU21D;64831;44.870;37.336;2024-01-10T11:31:43;0.16;67.75
76104;HTU21D;64831;44.870;37.336;2024-01-10T11:34:16;0.19;67.70
76104;HTU21D;64831;44.870;37.336;2024-01-10T11:37:11;0.27;67.98
76104;HTU21D;64831;44.870;37.336;2024-01-10T11:39:40;0.31;67.46
76104;HTU21D;64831;44.870;37.336;2024-01-10T11:42:08;0.29;67.20
76104;HTU21D;64831;44.870;37.336;2024-01-10T11:44:38;0.20;66.98
76104;HTU21D;64831;44.870;37.336;2024-01-10T11:47:13;0.22;66.98
76104;HTU21D;64831;44.870;37.336;2024-01-10T11:49:40;0.23;67.35
76104;HTU21D;64831;44.870;37.336;2024-01-10T11:52:08;0.20;67.26
76104;HTU21D;64831;44.870;37.336;2024-01-10T11:57:07;0.16;67.92
76104;HTU21D;64831;44.870;37.336;2024-01-10T11:59:34;0.16;67.94
76104;HTU21D;64831;44.870;37.336;2024-01-10T12:02:00;0.21;67.88
76104;HTU21D;64831;44.870;37.336;2024-01-10T12:04:27;0.24;67.64
76104;HTU21D;64831;44.870;37.336;2024-01-10T12:06:56;0.25;67.54
76104;HTU21D;64831;44.870;37.336;2024-01-10T12:09:23;0.31;67.71
76104;HTU21D;64831;44.870;37.336;2024-01-10T12:11:50;0.35;67.59
76104;HTU21D;64831;44.870;37.336;2024-01-10T12:14:17;0.33;67.31
76104;HTU21D;64831;44.870;37.336;2024-01-10T12:16:43;0.33;67.60
76104;HTU21D;64831;44.870;37.336;2024-01-10T12:19:09;0.36;67.98
76104;HTU21D;64831;44.870;37.336;2024-01-10T12:21:35;0.38;67.54
76104;HTU21D;64831;44.870;37.336;2024-01-10T12:24:03;0.45;67.40
76104;HTU21D;64831;44.870;37.336;2024-01-10T12:26:31;0.47;67.60
76104;HTU21D;64831;44.870;37.336;2024-01-10T12:28:59;0.44;67.13
76104;HTU21D;64831;44.870;37.336;2024-01-10T12:31:29;0.42;67.25
76104;HTU21D;64831;44.870;37.336;2024-01-10T12:33:56;0.38;67.31
76104;HTU21D;64831;44.870;37.336;2024-01-10T12:36:22;0.33;67.44
76104;HTU21D;64831;44.870;37.336;2024-01-10T12:38:48;0.21;67.90
76104;HTU21D;64831;44.870;37.336;2024-01-10T12:41:18;0.21;67.94
76104;HTU21D;64831;44.870;37.336;2024-01-10T12:43:53;0.16;67.84
76104;HTU21D;64831;44.870;37.336;2024-01-10T12:46:26;0.09;68.00
76104;HTU21D;64831;44.870;37.336;2024-01-10T12:49:06;0.08;68.97
76104;HTU21D;64831;44.870;37.336;2024-01-10T12:51:33;0.10;68.60
76104;HTU21D;64831;44.870;37.336;2024-01-10T12:54:02;0.09;68.22
76104;HTU21D;64831;44.870;37.336;2024-01-10T12:56:30;0.06;68.12
76104;HTU21D;64831;44.870;37.336;2024-01-10T12:58:56;0.03;67.94
76104;HTU21D;64831;44.870;37.336;2024-01-10T13:01:25;0.01;68.10
76104;HTU21D;64831;44.870;37.336;2024-01-10T13:03:52;-0.02;68.18
76104;HTU21D;64831;44.870;37.336;2024-01-10T13:06:18;-0.09;68.31
76104;HTU21D;64831;44.870;37.336;2024-01-10T13:08:48;-0.12;68.24
76104;HTU21D;64831;44.870;37.336;2024-01-10T13:11:15;-0.17;68.50
76104;HTU21D;64831;44.870;37.336;2024-01-10T13:13:41;-0.22;68.76
76104;HTU21D;64831;44.870;37.336;2024-01-10T13:16:09;-0.25;68.68
76104;HTU21D;64831;44.870;37.336;2024-01-10T13:18:41;-0.30;69.07
76104;HTU21D;64831;44.870;37.336;2024-01-10T13:21:07;-0.35;69.56
76104;HTU21D;64831;44.870;37.336;2024-01-10T13:23:33;-0.35;69.88
76104;HTU21D;64831;44.870;37.336;2024-01-10T13:26:00;-0.35;70.01
76104;HTU21D;64831;44.870;37.336;2024-01-10T13:28:26;-0.32;70.14
76104;HTU21D;64831;44.870;37.336;2024-01-10T13:30:53;-0.30;70.16
76104;HTU21D;64831;44.870;37.336;2024-01-10T13:33:21;-0.32;69.98
76104;HTU21D;64831;44.870;37.336;2024-01-10T13:35:47;-0.36;70.04
76104;HTU21D;64831;44.870;37.336;2024-01-10T13:38:15;-0.40;70.00
76104;HTU21D;64831;44.870;37.336;2024-01-10T13:40:41;-0.41;70.03
76104;HTU21D;64831;44.870;37.336;2024-01-10T13:43:07;-0.47;70.27
76104;HTU21D;64831;44.870;37.336;2024-01-10T13:45:33;-0.51;70.53
76104;HTU21D;64831;44.870;37.336;2024-01-10T13:47:59;-0.57;70.78
76104;HTU21D;64831;44.870;37.336;2024-01-10T13:50:26;-0.56;70.89
76104;HTU21D;64831;44.870;37.336;2024-01-10T13:52:53;-0.56;70.84
76104;HTU21D;64831;44.870;37.336;2024-01-10T13:55:19;-0.64;71.07
76104;HTU21D;64831;44.870;37.336;2024-01-10T13:57:46;-0.64;71.28
76104;HTU21D;64831;44.870;37.336;2024-01-10T14:00:12;-0.64;71.46
76104;HTU21D;64831;44.870;37.336;2024-01-10T14:02:41;-0.61;71.47
76104;HTU21D;64831;44.870;37.336;2024-01-10T14:05:07;-0.64;71.55
76104;HTU21D;64831;44.870;37.336;2024-01-10T14:07:34;-0.66;71.61
76104;HTU21D;64831;44.870;37.336;2024-01-10T14:10:01;-0.62;71.48
76104;HTU21D;64831;44.870;37.336;2024-01-10T14:12:28;-0.62;71.64
76104;HTU21D;64831;44.870;37.336;2024-01-10T14:14:55;-0.61;71.93
76104;HTU21D;64831;44.870;37.336;2024-01-10T14:17:22;-0.60;71.87
76104;HTU21D;64831;44.870;37.336;2024-01-10T14:19:48;-0.60;71.94
76104;HTU21D;64831;44.870;37.336;2024-01-10T14:22:17;-0.58;72.05
76104;HTU21D;64831;44.870;37.336;2024-01-10T14:24:44;-0.56;72.12
76104;HTU21D;64831;44.870;37.336;2024-01-10T14:27:10;-0.58;72.45
76104;HTU21D;64831;44.870;37.336;2024-01-10T14:29:36;-0.62;72.60
76104;HTU21D;64831;44.870;37.336;2024-01-10T14:32:02;-0.65;72.72
76104;HTU21D;64831;44.870;37.336;2024-01-10T14:34:29;-0.66;72.60
76104;HTU21D;64831;44.870;37.336;2024-01-10T14:36:55;-0.67;72.99
76104;HTU21D;64831;44.870;37.336;2024-01-10T14:39:21;-0.65;72.92
76104;HTU21D;64831;44.870;37.336;2024-01-10T14:41:47;-0.60;72.83
76104;HTU21D;64831;44.870;37.336;2024-01-10T14:44:13;-0.59;73.03
76104;HTU21D;64831;44.870;37.336;2024-01-10T14:46:38;-0.64;73.69
76104;HTU21D;64831;44.870;37.336;2024-01-10T14:49:05;-0.58;73.54
76104;HTU21D;64831;44.870;37.336;2024-01-10T14:51:31;-0.58;73.84
76104;HTU21D;64831;44.870;37.336;2024-01-10T14:53:58;-0.57;74.02
76104;HTU21D;64831;44.870;37.336;2024-01-10T14:56:24;-0.62;74.41
76104;HTU21D;64831;44.870;37.336;2024-01-10T14:58:50;-0.61;74.49
76104;HTU21D;64831;44.870;37.336;2024-01-10T15:01:17;-0.62;74.64
76104;HTU21D;64831;44.870;37.336;2024-01-10T15:03:43;-0.62;74.91
76104;HTU21D;64831;44.870;37.336;2024-01-10T15:06:09;-0.61;74.58
76104;HTU21D;64831;44.870;37.336;2024-01-10T15:08:35;-0.60;74.62
76104;HTU21D;64831;44.870;37.336;2024-01-10T15:11:02;-0.59;74.71
76104;HTU21D;64831;44.870;37.336;2024-01-10T15:13:28;-0.59;74.63
76104;HTU21D;64831;44.870;37.336;2024-01-10T15:15:54;-0.60;74.57
76104;HTU21D;64831;44.870;37.336;2024-01-10T15:18:20;-0.61;74.61
76104;HTU21D;64831;44.870;37.336;2024-01-10T15:20:46;-0.64;75.08
76104;HTU21D;64831;44.870;37.336;2024-01-10T15:23:12;-0.65;74.95